Manhattan Beach, Oregon
Current Conditions -  °F | °C
As of 8:35 PM on Tuesday 21 Oct 2014 (Local Time) from KTMK Reporting Station
Overcast Overcast  
Wind Chill: 61°   Ceiling: 4100
Heat Index: 61°   Visibility: 10mi
Dew Point: 50°   Wind: 8mph
Humidity: 68%   Direction: 130°SE
Pressure: 29.84"   Gusts: NA
Location:  45.6132°N, 123.654°W
Report Text: KTMK 220335Z AUTO 13007KT 10SM BKN041 OVC050 16/10 A2984 RMK AO2
Loading
Personal Weather Stations






























Interactive Weather Map
Tropical Storm Tracking
New forecast layout! Learn more

10-Day Weather Forecast

Advertisements
Track Severe Weather on mobile